Time;durP1;ratioP1;P1;durP2;ratioP2;P2;SDS_P1;SDS_P2;PMS_P1;PMS_P2;Temp;Humidity;BMP_temperature;BMP_pressure;BME280_temperature;BME280_humidity;BME280_pressure;Samples;Min_cycle;Max_cycle;Signal;HPM_P1;HPM_P2
2021/09/07 00:01:34;;;;;;;23.08;16.27;;;;;;;;;;5081676;28;20059;-63
2021/09/07 00:04:00;;;;;;;24.73;16.90;;;;;;;;;;5079306;28;20104;-64
2021/09/07 00:06:26;;;;;;;22.63;16.70;;;;;;;;;;5077564;28;20491;-63
2021/09/07 00:08:52;;;;;;;24.92;17.40;;;;;;;;;;5081980;28;20477;-63
2021/09/07 00:11:18;;;;;;;28.83;18.92;;;;;;;;;;5077757;28;20470;-63
2021/09/07 00:13:45;;;;;;;33.53;19.92;;;;;;;;;;5100172;28;20044;-63
2021/09/07 00:16:11;;;;;;;27.58;17.30;;;;;;;;;;5079179;28;20150;-63
2021/09/07 00:18:37;;;;;;;26.80;18.38;;;;;;;;;;5098567;28;20135;-63
2021/09/07 00:21:03;;;;;;;28.15;18.73;;;;;;;;;;5099003;28;20043;-64
2021/09/07 00:23:30;;;;;;;29.50;19.38;;;;;;;;;;5099948;28;20035;-63
2021/09/07 00:25:56;;;;;;;31.17;19.27;;;;;;;;;;5080447;28;20056;-63
2021/09/07 00:28:22;;;;;;;25.65;18.67;;;;;;;;;;5086242;28;20553;-64
2021/09/07 00:30:48;;;;;;;29.65;18.75;;;;;;;;;;5096971;28;20047;-63
2021/09/07 00:33:14;;;;;;;29.73;19.38;;;;;;;;;;5084023;28;20579;-63
2021/09/07 00:35:40;;;;;;;28.30;19.63;;;;;;;;;;5098827;28;20031;-63
2021/09/07 00:38:07;;;;;;;28.00;18.35;;;;;;;;;;5095480;28;20094;-63
2021/09/07 00:40:33;;;;;;;28.00;19.50;;;;;;;;;;5100936;28;20036;-63
2021/09/07 00:42:59;;;;;;;26.75;20.45;;;;;;;;;;5078848;28;20511;-63
2021/09/07 00:45:25;;;;;;;34.17;21.17;;;;;;;;;;5100796;28;20047;-63
2021/09/07 00:47:52;;;;;;;30.60;21.15;;;;;;;;;;5097591;28;20082;-63
2021/09/07 00:50:18;;;;;;;30.02;20.02;;;;;;;;;;5095459;28;20052;-63
2021/09/07 00:52:45;;;;;;;27.92;19.95;;;;;;;;;;5074193;28;20052;-63
2021/09/07 00:55:11;;;;;;;28.63;19.75;;;;;;;;;;5075356;28;20123;-63
2021/09/07 00:57:37;;;;;;;27.40;20.15;;;;;;;;;;5097026;28;20032;-63
2021/09/07 01:00:05;;;;;;;28.25;20.60;;;;;;;;;;5099972;28;20535;-63
2021/09/07 01:02:31;;;;;;;29.65;20.98;;;;;;;;;;5093857;28;20042;-63
2021/09/07 01:04:57;;;;;;;30.88;20.98;;;;;;;;;;5076903;28;20578;-63
2021/09/07 01:07:23;;;;;;;29.58;21.20;;;;;;;;;;5096458;28;20074;-63
2021/09/07 01:09:50;;;;;;;34.38;20.35;;;;;;;;;;5098805;28;20040;-64
2021/09/07 01:12:16;;;;;;;31.05;22.77;;;;;;;;;;5085643;28;20101;-63
2021/09/07 01:14:42;;;;;;;26.27;20.42;;;;;;;;;;5079206;28;20067;-63
2021/09/07 01:17:10;;;;;;;33.25;21.00;;;;;;;;;;5078381;28;20036;-63
2021/09/07 01:19:36;;;;;;;32.75;20.85;;;;;;;;;;5096190;28;20067;-64
2021/09/07 01:22:03;;;;;;;28.50;20.20;;;;;;;;;;5096541;28;20146;-63
2021/09/07 01:24:29;;;;;;;35.65;19.98;;;;;;;;;;5080026;28;20184;-64
2021/09/07 01:26:55;;;;;;;30.23;20.92;;;;;;;;;;5098778;28;20450;-64
2021/09/07 01:29:22;;;;;;;29.58;21.48;;;;;;;;;;5079936;28;20052;-63
2021/09/07 01:31:48;;;;;;;31.00;20.85;;;;;;;;;;5080977;28;20047;-64
2021/09/07 01:34:22;;;;;;;30.77;21.77;;;;;;;;;;5078450;28;20048;-63
2021/09/07 01:36:48;;;;;;;;;;;;;;;;;;5097144;28;20043;-63
2021/09/07 01:39:14;;;;;;;26.67;20.02;;;;;;;;;;5096187;28;19954;-63
2021/09/07 01:41:41;;;;;;;30.67;22.00;;;;;;;;;;5077251;28;20053;-63
2021/09/07 01:44:07;;;;;;;33.08;20.52;;;;;;;;;;5094884;28;20035;-63
2021/09/07 01:46:34;;;;;;;32.42;24.45;;;;;;;;;;5078868;28;20071;-64
2021/09/07 01:49:00;;;;;;;29.98;21.10;;;;;;;;;;5079430;28;20044;-64
2021/09/07 01:51:26;;;;;;;29.27;21.95;;;;;;;;;;5067746;28;20724;-63
2021/09/07 01:53:52;;;;;;;27.77;20.27;;;;;;;;;;5094252;28;20051;-63
2021/09/07 01:56:18;;;;;;;35.95;22.88;;;;;;;;;;5095270;28;20043;-63
2021/09/07 01:58:44;;;;;;;33.80;23.25;;;;;;;;;;5099209;28;20047;-63
2021/09/07 02:01:11;;;;;;;33.75;22.40;;;;;;;;;;5080870;28;20054;-63
2021/09/07 02:03:37;;;;;;;29.48;22.33;;;;;;;;;;5097901;28;20498;-63
2021/09/07 02:06:03;;;;;;;31.60;22.10;;;;;;;;;;5099750;28;20412;-63
2021/09/07 02:08:30;;;;;;;27.15;20.20;;;;;;;;;;5103979;28;20039;-63
2021/09/07 02:10:56;;;;;;;30.83;21.95;;;;;;;;;;5101778;28;20051;-63
2021/09/07 02:13:22;;;;;;;29.23;21.48;;;;;;;;;;5093865;28;20059;-64
2021/09/07 02:15:48;;;;;;;30.42;21.83;;;;;;;;;;5081617;28;20044;-64
2021/09/07 02:18:14;;;;;;;26.55;19.23;;;;;;;;;;5081570;28;20047;-64
2021/09/07 02:20:40;;;;;;;31.75;21.48;;;;;;;;;;5100436;28;20040;-64
2021/09/07 02:23:07;;;;;;;27.10;19.85;;;;;;;;;;5080415;28;20104;-63
2021/09/07 02:25:33;;;;;;;28.58;20.60;;;;;;;;;;5077759;28;20048;-63
2021/09/07 02:28:00;;;;;;;30.70;20.63;;;;;;;;;;5100155;28;20732;-63
2021/09/07 02:30:26;;;;;;;28.35;20.67;;;;;;;;;;5094258;28;20106;-63
2021/09/07 02:32:52;;;;;;;27.60;20.17;;;;;;;;;;5101672;28;20058;-63
2021/09/07 02:35:19;;;;;;;29.38;19.48;;;;;;;;;;5076666;28;20040;-63
2021/09/07 02:37:45;;;;;;;25.75;18.45;;;;;;;;;;5095415;28;20090;-63
2021/09/07 02:40:11;;;;;;;27.08;18.55;;;;;;;;;;5078826;28;20493;-63
2021/09/07 02:42:37;;;;;;;23.73;18.20;;;;;;;;;;5062388;28;20080;-63
2021/09/07 02:45:04;;;;;;;34.08;18.98;;;;;;;;;;5100906;28;20032;-63
2021/09/07 02:47:30;;;;;;;29.00;18.67;;;;;;;;;;5094654;28;20089;-63
2021/09/07 02:49:56;;;;;;;26.15;17.88;;;;;;;;;;5095259;28;20076;-63
2021/09/07 02:52:22;;;;;;;28.75;19.65;;;;;;;;;;5096872;28;20092;-63
2021/09/07 02:54:48;;;;;;;26.33;19.02;;;;;;;;;;5080512;28;20049;-63
2021/09/07 02:57:15;;;;;;;28.30;19.27;;;;;;;;;;5095538;28;20502;-63
2021/09/07 02:59:41;;;;;;;27.27;19.55;;;;;;;;;;5077691;28;20040;-63
2021/09/07 03:02:07;;;;;;;26.88;19.17;;;;;;;;;;5078643;28;20052;-63
2021/09/07 03:04:33;;;;;;;27.23;19.45;;;;;;;;;;5094173;28;20560;-63
2021/09/07 03:06:59;;;;;;;25.85;19.13;;;;;;;;;;5091000;28;20111;-63
2021/09/07 03:09:25;;;;;;;26.48;19.52;;;;;;;;;;5093876;28;20127;-63
2021/09/07 03:11:51;;;;;;;27.90;19.75;;;;;;;;;;5095712;28;20084;-63
2021/09/07 03:14:18;;;;;;;30.48;19.38;;;;;;;;;;5098413;28;20039;-63
2021/09/07 03:16:44;;;;;;;28.73;20.25;;;;;;;;;;5099635;28;20066;-63
2021/09/07 03:19:10;;;;;;;25.17;20.15;;;;;;;;;;5077862;28;20375;-63
2021/09/07 03:21:37;;;;;;;26.85;20.00;;;;;;;;;;5098539;28;20036;-63
2021/09/07 03:24:03;;;;;;;30.95;20.05;;;;;;;;;;5096367;28;20052;-63
2021/09/07 03:26:29;;;;;;;27.73;19.67;;;;;;;;;;5081540;28;20054;-63
2021/09/07 03:28:55;;;;;;;26.15;19.08;;;;;;;;;;5081321;28;20460;-63
2021/09/07 03:31:22;;;;;;;26.33;18.80;;;;;;;;;;5084737;28;20522;-63
2021/09/07 03:33:48;;;;;;;28.30;18.58;;;;;;;;;;5079127;28;20086;-63
2021/09/07 03:36:14;;;;;;;25.77;17.52;;;;;;;;;;5097126;28;20040;-63
2021/09/07 03:38:40;;;;;;;25.17;18.60;;;;;;;;;;5083106;28;20052;-63
2021/09/07 03:41:06;;;;;;;23.80;17.10;;;;;;;;;;5081888;28;21370;-63
2021/09/07 03:43:32;;;;;;;26.67;16.42;;;;;;;;;;5080777;28;20045;-63
2021/09/07 03:45:59;;;;;;;22.65;16.88;;;;;;;;;;5080218;28;20062;-63
2021/09/07 03:48:25;;;;;;;21.95;15.23;;;;;;;;;;5101639;28;20047;-63
2021/09/07 03:50:51;;;;;;;23.15;16.60;;;;;;;;;;5077656;28;20396;-63
2021/09/07 03:53:17;;;;;;;27.58;17.05;;;;;;;;;;5080114;28;20052;-63
2021/09/07 03:55:43;;;;;;;25.27;16.20;;;;;;;;;;5080187;28;20093;-63
2021/09/07 03:58:09;;;;;;;25.17;16.25;;;;;;;;;;5079396;28;20082;-63
2021/09/07 04:00:36;;;;;;;23.75;17.08;;;;;;;;;;5076677;28;20040;-63
2021/09/07 04:03:02;;;;;;;23.02;16.10;;;;;;;;;;5077012;28;20090;-63
2021/09/07 04:05:28;;;;;;;26.13;17.58;;;;;;;;;;5100243;28;20494;-63
2021/09/07 04:07:55;;;;;;;22.55;16.40;;;;;;;;;;5080079;28;20059;-63
2021/09/07 04:10:21;;;;;;;25.92;17.45;;;;;;;;;;5096311;28;20043;-63
2021/09/07 04:12:47;;;;;;;21.85;16.80;;;;;;;;;;5098788;28;20036;-63
2021/09/07 04:15:13;;;;;;;21.73;15.05;;;;;;;;;;5077616;28;20047;-63
2021/09/07 04:17:39;;;;;;;23.92;15.98;;;;;;;;;;5084723;28;20051;-63
2021/09/07 04:20:06;;;;;;;23.13;16.50;;;;;;;;;;5101981;28;20098;-63
2021/09/07 04:22:32;;;;;;;20.83;15.30;;;;;;;;;;5083835;28;20060;-63
2021/09/07 04:24:58;;;;;;;21.88;16.00;;;;;;;;;;5099523;28;20357;-63
2021/09/07 04:27:24;;;;;;;22.45;16.67;;;;;;;;;;5095833;28;20085;-63
2021/09/07 04:29:51;;;;;;;25.95;17.02;;;;;;;;;;5099107;28;20381;-63
2021/09/07 04:32:17;;;;;;;25.17;18.08;;;;;;;;;;5101555;28;20059;-63
2021/09/07 04:34:43;;;;;;;29.10;19.55;;;;;;;;;;5085422;28;20047;-63
2021/09/07 04:37:09;;;;;;;22.58;18.10;;;;;;;;;;5100359;28;20127;-63
2021/09/07 04:39:35;;;;;;;26.63;17.55;;;;;;;;;;5100275;28;20040;-63
2021/09/07 04:42:01;;;;;;;23.95;18.55;;;;;;;;;;5096993;28;20180;-63
2021/09/07 04:44:27;;;;;;;25.88;18.25;;;;;;;;;;5098330;28;20051;-63
2021/09/07 04:46:54;;;;;;;24.52;18.52;;;;;;;;;;5099304;28;20536;-63
2021/09/07 04:49:20;;;;;;;24.05;17.90;;;;;;;;;;5095722;28;20035;-63
2021/09/07 04:51:46;;;;;;;23.45;18.25;;;;;;;;;;5097669;28;20075;-63
2021/09/07 04:54:12;;;;;;;23.20;17.80;;;;;;;;;;5081651;28;20036;-63
2021/09/07 04:56:39;;;;;;;22.15;17.95;;;;;;;;;;5098824;28;20182;-63
2021/09/07 04:59:05;;;;;;;23.52;17.45;;;;;;;;;;5064855;28;20051;-63
2021/09/07 05:01:31;;;;;;;26.52;18.08;;;;;;;;;;5099288;28;20063;-63
2021/09/07 05:03:57;;;;;;;25.88;17.73;;;;;;;;;;5096080;28;20043;-63
2021/09/07 05:06:23;;;;;;;23.75;17.13;;;;;;;;;;5083343;28;20055;-63
2021/09/07 05:08:49;;;;;;;24.38;17.85;;;;;;;;;;5081679;28;20044;-63
2021/09/07 05:11:16;;;;;;;22.05;17.15;;;;;;;;;;5101387;28;20460;-63
2021/09/07 05:13:42;;;;;;;26.90;18.85;;;;;;;;;;5087283;28;20040;-64
2021/09/07 05:16:08;;;;;;;23.38;16.67;;;;;;;;;;5100032;28;20111;-63
2021/09/07 05:18:34;;;;;;;23.60;17.35;;;;;;;;;;5076704;28;20126;-63
2021/09/07 05:21:00;;;;;;;24.80;16.77;;;;;;;;;;5073426;28;20047;-63
2021/09/07 05:23:26;;;;;;;23.50;16.88;;;;;;;;;;5071836;28;20046;-63
2021/09/07 05:25:52;;;;;;;29.40;18.88;;;;;;;;;;5069658;28;20518;-63
2021/09/07 05:28:19;;;;;;;22.42;17.25;;;;;;;;;;5093027;28;20062;-64
2021/09/07 05:30:45;;;;;;;26.38;18.98;;;;;;;;;;5073156;28;20056;-63
2021/09/07 05:33:11;;;;;;;25.38;19.05;;;;;;;;;;5100455;28;20522;-63
2021/09/07 05:35:37;;;;;;;30.50;19.50;;;;;;;;;;5077399;28;20146;-63
2021/09/07 05:38:05;;;;;;;29.85;19.42;;;;;;;;;;5098171;28;20149;-63
2021/09/07 05:40:31;;;;;;;25.73;18.80;;;;;;;;;;5099753;28;20043;-63
2021/09/07 05:42:58;;;;;;;27.55;19.08;;;;;;;;;;5098547;28;20043;-63
2021/09/07 05:45:24;;;;;;;27.05;18.70;;;;;;;;;;5099819;28;20035;-63
2021/09/07 05:47:50;;;;;;;28.60;18.85;;;;;;;;;;5103865;28;20063;-63
2021/09/07 05:50:16;;;;;;;29.35;19.17;;;;;;;;;;5081748;28;20229;-63
2021/09/07 05:52:43;;;;;;;24.80;18.08;;;;;;;;;;5082864;28;20043;-63
2021/09/07 05:55:09;;;;;;;29.58;19.25;;;;;;;;;;5095427;28;20141;-63
2021/09/07 05:57:35;;;;;;;26.75;19.85;;;;;;;;;;5075531;28;20043;-63
2021/09/07 06:00:02;;;;;;;27.80;19.90;;;;;;;;;;5078461;28;20395;-63
2021/09/07 06:02:29;;;;;;;28.75;19.17;;;;;;;;;;5098613;28;20044;-63
2021/09/07 06:04:56;;;;;;;25.33;18.55;;;;;;;;;;5081456;28;20040;-63
2021/09/07 06:07:22;;;;;;;28.65;19.55;;;;;;;;;;5082301;28;20055;-63
2021/09/07 06:09:48;;;;;;;29.15;19.77;;;;;;;;;;5080563;28;20483;-63
2021/09/07 06:12:14;;;;;;;28.02;19.90;;;;;;;;;;5067308;28;20182;-63
2021/09/07 06:14:40;;;;;;;29.73;19.35;;;;;;;;;;5096967;28;20058;-63
2021/09/07 06:17:08;;;;;;;30.17;20.02;;;;;;;;;;5080767;28;20052;-64
2021/09/07 06:19:34;;;;;;;27.42;19.63;;;;;;;;;;5097086;28;20094;-64
2021/09/07 06:22:01;;;;;;;26.55;18.60;;;;;;;;;;5074527;28;20062;-63
2021/09/07 06:24:27;;;;;;;25.88;19.30;;;;;;;;;;5084808;28;20116;-63
2021/09/07 06:26:53;;;;;;;28.08;19.95;;;;;;;;;;5101733;28;20363;-63
2021/09/07 06:29:19;;;;;;;28.27;20.30;;;;;;;;;;5100574;28;20036;-62
2021/09/07 06:31:46;;;;;;;29.60;20.27;;;;;;;;;;5076060;28;20048;-63
2021/09/07 06:34:12;;;;;;;26.90;18.80;;;;;;;;;;5082305;28;20056;-63
2021/09/07 06:36:38;;;;;;;26.15;20.25;;;;;;;;;;5078742;28;20050;-62
2021/09/07 06:39:05;;;;;;;25.42;18.52;;;;;;;;;;5078925;28;20123;-62
2021/09/07 06:41:31;;;;;;;26.77;18.48;;;;;;;;;;5097287;28;20131;-63
2021/09/07 06:43:57;;;;;;;27.25;19.63;;;;;;;;;;5079357;28;20056;-62
2021/09/07 06:46:23;;;;;;;27.63;19.55;;;;;;;;;;5079935;28;20040;-63
2021/09/07 06:48:49;;;;;;;31.05;19.40;;;;;;;;;;5091812;28;20475;-62
2021/09/07 06:51:16;;;;;;;27.98;19.42;;;;;;;;;;5081563;28;20046;-63
2021/09/07 06:53:42;;;;;;;26.67;18.40;;;;;;;;;;5081419;28;20040;-62
2021/09/07 06:56:08;;;;;;;27.85;18.00;;;;;;;;;;5062992;28;20047;-62
2021/09/07 06:58:34;;;;;;;26.45;18.65;;;;;;;;;;5101532;28;20053;-63
2021/09/07 07:01:00;;;;;;;28.23;17.88;;;;;;;;;;5100361;28;20050;-63
2021/09/07 07:03:29;;;;;;;24.98;17.80;;;;;;;;;;5095545;28;20047;-63
2021/09/07 07:05:55;;;;;;;24.70;18.05;;;;;;;;;;5101431;28;20040;-63
2021/09/07 07:08:22;;;;;;;28.30;18.65;;;;;;;;;;5087077;28;20483;-63
2021/09/07 07:10:48;;;;;;;29.80;18.98;;;;;;;;;;5084035;28;20122;-62
2021/09/07 07:13:14;;;;;;;30.55;18.00;;;;;;;;;;5089173;28;20050;-62
2021/09/07 07:15:40;;;;;;;27.80;19.67;;;;;;;;;;5110981;28;20096;-63
2021/09/07 07:18:06;;;;;;;26.92;19.60;;;;;;;;;;5104586;28;20079;-62
2021/09/07 07:20:32;;;;;;;26.33;18.48;;;;;;;;;;5104602;28;20040;-62
2021/09/07 07:22:59;;;;;;;25.20;18.13;;;;;;;;;;5086609;28;20119;-63
2021/09/07 07:25:25;;;;;;;27.00;17.67;;;;;;;;;;5083710;28;20448;-62
2021/09/07 07:27:51;;;;;;;27.92;18.05;;;;;;;;;;5105595;28;20032;-63
2021/09/07 07:30:18;;;;;;;23.38;16.10;;;;;;;;;;5106259;28;20119;-62
2021/09/07 07:32:44;;;;;;;31.08;17.77;;;;;;;;;;5103729;28;20525;-63
2021/09/07 07:35:10;;;;;;;23.75;16.23;;;;;;;;;;5082279;28;20043;-63
2021/09/07 07:37:37;;;;;;;25.02;18.00;;;;;;;;;;5083803;28;20131;-63
2021/09/07 07:40:03;;;;;;;21.88;16.25;;;;;;;;;;5083070;28;20042;-63
2021/09/07 07:42:30;;;;;;;24.52;17.20;;;;;;;;;;5100918;28;20039;-63
2021/09/07 07:44:56;;;;;;;23.63;16.52;;;;;;;;;;5100099;28;20085;-64
2021/09/07 07:47:22;;;;;;;27.67;17.20;;;;;;;;;;5087319;28;20092;-64
2021/09/07 07:49:48;;;;;;;24.80;18.10;;;;;;;;;;5088062;28;20131;-64
2021/09/07 07:52:15;;;;;;;24.85;16.73;;;;;;;;;;5087253;28;20054;-64
2021/09/07 07:54:41;;;;;;;27.25;17.40;;;;;;;;;;5099978;28;20531;-64
2021/09/07 07:57:07;;;;;;;25.67;16.60;;;;;;;;;;5083215;28;20488;-64
2021/09/07 07:59:33;;;;;;;26.08;17.65;;;;;;;;;;5086368;28;20089;-64
2021/09/07 08:01:59;;;;;;;24.33;17.80;;;;;;;;;;5090805;28;20074;-64
2021/09/07 08:04:25;;;;;;;24.38;16.60;;;;;;;;;;5108464;28;20093;-64
2021/09/07 08:06:52;;;;;;;21.67;15.60;;;;;;;;;;5083298;28;20055;-64
2021/09/07 08:09:18;;;;;;;19.35;15.95;;;;;;;;;;5102234;28;20395;-64
2021/09/07 08:11:44;;;;;;;22.73;15.55;;;;;;;;;;5081383;28;20549;-63
2021/09/07 08:14:10;;;;;;;22.23;15.82;;;;;;;;;;5083420;28;20154;-63
2021/09/07 08:16:36;;;;;;;21.55;14.52;;;;;;;;;;5080606;28;20061;-63
2021/09/07 08:19:03;;;;;;;23.30;15.63;;;;;;;;;;5083299;28;20407;-64
2021/09/07 08:21:29;;;;;;;24.38;14.65;;;;;;;;;;5078739;28;20131;-64
2021/09/07 08:23:56;;;;;;;22.88;14.05;;;;;;;;;;5100804;28;20489;-63
2021/09/07 08:26:22;;;;;;;24.00;15.25;;;;;;;;;;5085638;28;20039;-63
2021/09/07 08:28:48;;;;;;;24.05;13.80;;;;;;;;;;5098613;28;20111;-63
2021/09/07 08:31:14;;;;;;;17.50;13.05;;;;;;;;;;5080487;28;20067;-63
2021/09/07 08:33:40;;;;;;;22.52;13.23;;;;;;;;;;5078621;28;20041;-63
2021/09/07 08:36:07;;;;;;;20.10;14.00;;;;;;;;;;5078377;28;20048;-64
2021/09/07 08:38:33;;;;;;;19.65;14.15;;;;;;;;;;5079325;28;20044;-63
2021/09/07 08:40:59;;;;;;;21.50;14.15;;;;;;;;;;5079201;28;20076;-63
2021/09/07 08:43:26;;;;;;;23.77;15.20;;;;;;;;;;5079728;28;20052;-64
2021/09/07 08:45:52;;;;;;;17.60;13.85;;;;;;;;;;5081885;28;20061;-63
2021/09/07 08:48:21;;;;;;;21.85;15.13;;;;;;;;;;5083756;28;20040;-63
2021/09/07 08:50:47;;;;;;;18.23;13.88;;;;;;;;;;5080411;28;20480;-64
2021/09/07 08:53:14;;;;;;;17.05;13.07;;;;;;;;;;5077635;28;20048;-64
2021/09/07 08:55:40;;;;;;;20.52;14.40;;;;;;;;;;5075353;28;20047;-64
2021/09/07 08:58:07;;;;;;;21.67;14.30;;;;;;;;;;5077121;28;20047;-63
2021/09/07 09:00:33;;;;;;;21.42;14.63;;;;;;;;;;5073752;28;20029;-63
2021/09/07 09:03:11;;;;;;;20.35;14.88;;;;;;;;;;5082935;28;20040;-64
2021/09/07 09:05:40;;;;;;;22.48;13.90;;;;;;;;;;5083149;28;20035;-64
2021/09/07 09:08:11;;;;;;;21.13;14.23;;;;;;;;;;5085275;28;20040;-64
2021/09/07 09:10:37;;;;;;;18.75;13.32;;;;;;;;;;5080599;28;20074;-64
2021/09/07 09:13:05;;;;;;;16.52;12.57;;;;;;;;;;5084158;28;20059;-64
2021/09/07 09:15:32;;;;;;;20.88;13.13;;;;;;;;;;5082563;28;20085;-63
2021/09/07 09:18:08;;;;;;;17.90;13.02;;;;;;;;;;5082721;28;20056;-64
2021/09/07 09:20:34;;;;;;;24.70;15.10;;;;;;;;;;5080343;28;20040;-64
2021/09/07 09:23:02;;;;;;;21.08;12.90;;;;;;;;;;5085623;28;20513;-63
2021/09/07 09:25:28;;;;;;;20.23;12.95;;;;;;;;;;5078353;28;20046;-63
2021/09/07 09:27:55;;;;;;;21.60;14.05;;;;;;;;;;5078209;28;20620;-63
2021/09/07 09:30:25;;;;;;;20.85;14.35;;;;;;;;;;5078561;28;20040;-64
2021/09/07 09:32:53;;;;;;;17.42;13.57;;;;;;;;;;5079981;28;20451;-63
2021/09/07 09:35:19;;;;;;;24.08;15.10;;;;;;;;;;5081829;28;20124;-63
2021/09/07 09:37:53;;;;;;;20.63;14.38;;;;;;;;;;5079418;28;20044;-63
2021/09/07 09:40:20;;;;;;;21.73;15.23;;;;;;;;;;5100332;28;20043;-63
2021/09/07 09:42:48;;;;;;;19.13;14.60;;;;;;;;;;5097956;28;20866;-63
2021/09/07 09:45:15;;;;;;;20.00;14.18;;;;;;;;;;5081145;28;20063;-63
2021/09/07 09:47:43;;;;;;;19.38;13.85;;;;;;;;;;5096634;28;20528;-63
2021/09/07 09:50:11;;;;;;;28.05;15.75;;;;;;;;;;5097454;28;20066;-63
2021/09/07 09:52:38;;;;;;;20.20;14.32;;;;;;;;;;5083988;28;20051;-64
2021/09/07 09:55:05;;;;;;;18.92;13.50;;;;;;;;;;5103011;28;20044;-63
2021/09/07 09:57:32;;;;;;;23.40;14.68;;;;;;;;;;5097865;28;20031;-63
2021/09/07 09:59:59;;;;;;;20.58;15.63;;;;;;;;;;5097965;28;20414;-63
2021/09/07 10:02:26;;;;;;;19.60;15.20;;;;;;;;;;5098381;28;20041;-63
2021/09/07 10:04:53;;;;;;;20.17;14.90;;;;;;;;;;5081830;28;20047;-63
2021/09/07 10:07:19;;;;;;;20.90;14.60;;;;;;;;;;5078067;28;20483;-63
2021/09/07 10:09:48;;;;;;;20.23;15.13;;;;;;;;;;5101161;28;20044;-63
2021/09/07 10:12:19;;;;;;;20.42;14.35;;;;;;;;;;5099617;28;20044;-63
2021/09/07 10:14:55;;;;;;;21.58;14.50;;;;;;;;;;5079090;28;20051;-63
2021/09/07 10:17:28;;;;;;;20.55;14.10;;;;;;;;;;5096547;28;20102;-63
2021/09/07 10:20:13;;;;;;;19.13;14.05;;;;;;;;;;5092994;28;20119;-63
2021/09/07 10:25:48;;;;;;;18.13;13.43;;;;;;;;;;5091466;28;20172;-63
2021/09/07 10:28:28;;;;;;;16.40;12.82;;;;;;;;;;5092889;28;20173;-63
2021/09/07 10:30:57;;;;;;;18.67;13.35;;;;;;;;;;5099584;28;20473;-63
2021/09/07 10:33:28;;;;;;;19.10;14.40;;;;;;;;;;5079991;28;20047;-63
2021/09/07 10:36:04;;;;;;;18.88;14.02;;;;;;;;;;5101129;28;20040;-63
2021/09/07 10:38:46;;;;;;;19.02;12.43;;;;;;;;;;5097225;28;20043;-63
2021/09/07 10:41:31;;;;;;;17.23;12.75;;;;;;;;;;5083223;28;20044;-63
2021/09/07 10:43:58;;;;;;;18.05;12.45;;;;;;;;;;5082502;28;20123;-64
2021/09/07 10:46:43;;;;;;;15.60;12.60;;;;;;;;;;5077037;28;20397;-63
2021/09/07 10:49:13;;;;;;;15.30;11.73;;;;;;;;;;5095303;28;20126;-64
2021/09/07 10:51:58;;;;;;;16.50;13.05;;;;;;;;;;5096502;28;20418;-63
2021/09/07 10:54:25;;;;;;;16.40;12.35;;;;;;;;;;5081493;28;20366;-64
2021/09/07 10:56:56;;;;;;;16.92;12.57;;;;;;;;;;5096826;28;20825;-64
2021/09/07 10:59:42;;;;;;;16.08;12.80;;;;;;;;;;5098163;28;20048;-64
2021/09/07 11:02:33;;;;;;;18.55;11.80;;;;;;;;;;5077376;28;20048;-64
2021/09/07 11:05:02;;;;;;;17.52;13.32;;;;;;;;;;5101680;28;20040;-64
2021/09/07 11:07:38;;;;;;;17.02;12.70;;;;;;;;;;5101000;28;20066;-64
2021/09/07 11:10:04;;;;;;;14.93;12.48;;;;;;;;;;5094481;28;20047;-64
2021/09/07 11:12:31;;;;;;;17.75;12.05;;;;;;;;;;5082347;28;20044;-64
2021/09/07 11:15:08;;;;;;;17.45;11.57;;;;;;;;;;5099091;28;20046;-64
2021/09/07 11:17:36;;;;;;;14.90;12.40;;;;;;;;;;5097556;28;20044;-64
2021/09/07 11:20:06;;;;;;;14.88;12.00;;;;;;;;;;5094443;28;20036;-64
2021/09/07 11:22:33;;;;;;;15.20;12.38;;;;;;;;;;5075238;28;20536;-64
2021/09/07 11:25:02;;;;;;;18.77;12.13;;;;;;;;;;5101081;28;20108;-64
2021/09/07 11:27:47;;;;;;;16.35;12.30;;;;;;;;;;5079968;28;20044;-64
2021/09/07 11:30:21;;;;;;;15.05;11.68;;;;;;;;;;5077390;28;20062;-63
2021/09/07 11:32:47;;;;;;;16.08;12.95;;;;;;;;;;5093885;28;20052;-64
2021/09/07 11:35:13;;;;;;;16.48;11.40;;;;;;;;;;5102389;28;20035;-64
2021/09/07 11:37:40;;;;;;;16.73;12.45;;;;;;;;;;5099061;28;20040;-64
2021/09/07 11:40:13;;;;;;;12.65;10.73;;;;;;;;;;5095434;28;20498;-63
2021/09/07 11:42:44;;;;;;;13.75;10.63;;;;;;;;;;5080852;28;20097;-63
2021/09/07 11:45:17;;;;;;;14.05;11.38;;;;;;;;;;5094531;28;20083;-63
2021/09/07 11:47:44;;;;;;;;;;;;;;;;;;5093919;28;20473;-64
2021/09/07 11:50:14;;;;;;;17.08;11.60;;;;;;;;;;5078458;28;20270;-63
2021/09/07 11:52:40;;;;;;;16.60;11.05;;;;;;;;;;5102617;28;20040;-63
2021/09/07 11:55:08;;;;;;;16.73;11.00;;;;;;;;;;5103298;28;20042;-64
2021/09/07 11:57:45;;;;;;;14.32;10.52;;;;;;;;;;5103000;28;20127;-64
2021/09/07 12:00:11;;;;;;;14.70;11.70;;;;;;;;;;5103530;28;20052;-64
2021/09/07 12:02:37;;;;;;;16.65;11.57;;;;;;;;;;5083685;28;20402;-64
2021/09/07 12:05:04;;;;;;;15.70;11.15;;;;;;;;;;5100340;28;20055;-64
2021/09/07 12:07:31;;;;;;;18.42;11.65;;;;;;;;;;5106016;28;20514;-63
2021/09/07 12:10:05;;;;;;;17.23;13.48;;;;;;;;;;5103044;28;20490;-64
2021/09/07 12:12:35;;;;;;;16.08;11.80;;;;;;;;;;5081127;28;20390;-64
2021/09/07 12:15:14;;;;;;;15.73;12.52;;;;;;;;;;5103104;28;20060;-64
2021/09/07 12:17:42;;;;;;;18.50;13.80;;;;;;;;;;5101603;28;20418;-65
2021/09/07 12:20:13;;;;;;;17.70;13.75;;;;;;;;;;5082676;28;20115;-64
2021/09/07 12:22:40;;;;;;;16.30;13.00;;;;;;;;;;5082036;28;20126;-64
2021/09/07 12:25:07;;;;;;;19.98;14.65;;;;;;;;;;5095664;28;20043;-64
2021/09/07 12:27:39;;;;;;;18.75;14.73;;;;;;;;;;5101161;28;20032;-64
2021/09/07 12:30:07;;;;;;;17.30;13.43;;;;;;;;;;5102092;28;20102;-64
2021/09/07 12:32:45;;;;;;;19.10;13.65;;;;;;;;;;5081420;28;20051;-64
2021/09/07 12:35:11;;;;;;;22.25;16.75;;;;;;;;;;5099338;28;20391;-64
2021/09/07 12:37:37;;;;;;;22.48;13.40;;;;;;;;;;5084217;28;20073;-64
2021/09/07 12:40:04;;;;;;;17.23;12.95;;;;;;;;;;5098253;28;20039;-64
2021/09/07 12:42:30;;;;;;;18.77;12.77;;;;;;;;;;5099610;28;20055;-64
2021/09/07 12:44:56;;;;;;;27.15;15.07;;;;;;;;;;5086673;28;20039;-64
2021/09/07 12:47:22;;;;;;;25.65;14.10;;;;;;;;;;5103154;28;20066;-64
2021/09/07 12:49:48;;;;;;;21.17;14.82;;;;;;;;;;5099680;28;20048;-64
2021/09/07 12:52:15;;;;;;;19.92;14.70;;;;;;;;;;5101505;28;20047;-64
2021/09/07 12:54:41;;;;;;;23.55;16.00;;;;;;;;;;5079013;28;20079;-64
2021/09/07 12:57:07;;;;;;;18.60;13.95;;;;;;;;;;5098061;28;20059;-64
2021/09/07 12:59:33;;;;;;;19.38;11.95;;;;;;;;;;5099269;28;20036;-64
2021/09/07 13:01:59;;;;;;;18.45;13.65;;;;;;;;;;5079570;28;20141;-64
2021/09/07 13:04:25;;;;;;;18.08;12.40;;;;;;;;;;5076384;28;20040;-64
2021/09/07 13:06:52;;;;;;;17.80;11.20;;;;;;;;;;5087722;28;20461;-65
2021/09/07 13:09:18;;;;;;;18.25;12.45;;;;;;;;;;5085555;28;20075;-63
2021/09/07 13:11:44;;;;;;;21.10;11.82;;;;;;;;;;5105658;28;20068;-64
2021/09/07 13:14:10;;;;;;;19.73;13.32;;;;;;;;;;5080301;28;20047;-64
2021/09/07 13:16:36;;;;;;;20.40;14.45;;;;;;;;;;5083849;28;20038;-64
2021/09/07 13:19:03;;;;;;;14.57;11.45;;;;;;;;;;5082625;28;20074;-64
2021/09/07 13:21:30;;;;;;;15.77;11.45;;;;;;;;;;5096178;28;20039;-64
2021/09/07 13:23:57;;;;;;;13.95;11.32;;;;;;;;;;5074779;28;20431;-64
2021/09/07 13:26:23;;;;;;;14.20;10.45;;;;;;;;;;5079743;28;20062;-64
2021/09/07 13:28:49;;;;;;;16.67;11.05;;;;;;;;;;5076529;28;20097;-64
2021/09/07 13:31:15;;;;;;;14.38;10.95;;;;;;;;;;5100487;28;20047;-64
2021/09/07 13:33:41;;;;;;;16.52;11.60;;;;;;;;;;5096559;28;20058;-63
2021/09/07 13:36:07;;;;;;;16.20;11.57;;;;;;;;;;5096682;28;20096;-64
2021/09/07 13:38:34;;;;;;;16.75;11.95;;;;;;;;;;5097569;28;20050;-64
2021/09/07 13:41:00;;;;;;;13.88;11.27;;;;;;;;;;5093075;28;20048;-64
2021/09/07 13:43:26;;;;;;;16.55;13.05;;;;;;;;;;5090157;28;20122;-64
2021/09/07 13:45:52;;;;;;;13.65;11.23;;;;;;;;;;5078898;28;20572;-64
2021/09/07 13:48:19;;;;;;;15.35;10.85;;;;;;;;;;5095877;28;20051;-63
2021/09/07 13:50:45;;;;;;;14.82;9.93;;;;;;;;;;5075621;28;20040;-64
2021/09/07 13:53:11;;;;;;;14.43;10.05;;;;;;;;;;5080556;28;20059;-63
2021/09/07 13:55:37;;;;;;;19.70;11.32;;;;;;;;;;5073185;28;20124;-63
2021/09/07 13:58:03;;;;;;;15.48;10.30;;;;;;;;;;5093048;28;20075;-64
2021/09/07 14:00:30;;;;;;;16.90;11.60;;;;;;;;;;5080147;28;20144;-63
2021/09/07 14:02:56;;;;;;;17.25;12.50;;;;;;;;;;5093580;28;20044;-64
2021/09/07 14:05:22;;;;;;;17.58;11.65;;;;;;;;;;5098233;28;20093;-64
2021/09/07 14:07:48;;;;;;;14.75;10.32;;;;;;;;;;5076160;28;20093;-64
2021/09/07 14:10:15;;;;;;;18.90;11.30;;;;;;;;;;5076657;28;20660;-64
2021/09/07 14:12:42;;;;;;;14.80;10.63;;;;;;;;;;5081749;28;20052;-63
2021/09/07 14:15:09;;;;;;;12.82;10.40;;;;;;;;;;5099453;28;20051;-64
2021/09/07 14:17:35;;;;;;;12.13;10.05;;;;;;;;;;5098194;28;20044;-63
2021/09/07 14:20:01;;;;;;;13.32;9.73;;;;;;;;;;5097612;28;20092;-64
2021/09/07 14:22:27;;;;;;;18.27;11.88;;;;;;;;;;5077277;28;20056;-64